Capitol Logistics 459


KRFD
Chicago/Rockford International Airport
Rockford, Illinois, US
KEWR
Newark Liberty International Airport
Newark, New Jersey, US

Activity Log

Date Flight Route Aircraft Duration
12/30/2019 CPX459 RFD V100 OBK J584 CRL J190 ZORBO J584 SLT FQM3 B738 1h 52m
12/19/2019 CPX459 OBK SAMPL ADIME NELLS KEEHO J584 SLT FQM FQM3 B738 2h 50m
10/14/2019 CPX459 OBK SAMPL ADIME NELLS KEEHO J584 SLT FQM FQM3 B738 2h 18m
08/25/2019 CPX459 OBK SAMPL ADIME NELLS KEEHO J584 SLT FQM FQM3 B738 1h 48m
07/21/2019 CPX459 OBK SAMPL ADIME NELLS KEEHO J584 SLT FQM FQM3 B738 1h 46m

Route Details

Aircraft Information
Primary: Boeing 737-800BCF
Backup: Not Available
Route Data
Distance: 679nm
Sched. Duration: 1h 43m
Avg. Duration: 1h 83m (+39m)
Times Flown: 5
Recm'd Route: OBK SAMPL ADIME NELLS KEEHO J584 SLT FQM FQM3
Planned Altitude: 37,000ft
Origin Wx: KRFD 271054Z 28007KT 10SM FEW180 M07/M11 A3008 RMK AO2 SLP197 T10671106
Dest. Wx: KEWR 271117Z 25019G25KT 10SM FEW008 SCT020 OVC040 06/03 A2937 RMK AO2 RAE1056 P0000 T00610033
Notes:

Financial History
Total Freight: 155,232lbs
Average Load: 31,046lbs/flt
Fuel Used: 46,974lbs
Avg. Fuel Used: 9,395lbs/flt
Fuel Expense: $33,924
Avg. Fuel Expense: $6,785
Avg. Fuel Cost: $0.72/lbs
Total Gross Income: $208,006
Pilot Pay: $825
Total Expenses: $22,725
Total Revenue: $149,673
Average Revenue: $41,601.12